Dudley, United Kingdom
Current Conditions -  °F | °C
As of 1:50 AM on Sunday 21 Dec 2014 (Local Time) from EGBB Reporting Station
Few Clouds Few Clouds  
Wind Chill: 36°   Ceiling: Unl
Heat Index: 41°   Visibility: 6mi
Dew Point: 37°   Wind: 7mph
Humidity: 87%   Direction: 200°SSW
Pressure: 30.36"   Gusts: NA
Location:  52.51°N, 2.09°W
Report Text: EGBB 210150Z AUTO 20006KT 160V230 9999 FEW038/// 05/03 Q1028
Loading
Personal Weather Stations






























Interactive Weather Map New forecast layout! Learn more

10-Day Weather Forecast

Advertisements
Track Severe Weather on mobile